createdAt,value
2017-09-21T00:00:02.649Z,85.47
2017-09-21T00:01:03.087Z,86.43
2017-09-21T00:02:03.513Z,86.18
2017-09-21T00:03:03.941Z,86.57
2017-09-21T00:04:04.419Z,86.37
2017-09-21T00:05:04.804Z,85.57
2017-09-21T00:06:05.244Z,86.52
2017-09-21T00:07:05.672Z,86.57
2017-09-21T00:08:06.120Z,86.47
2017-09-21T00:09:06.535Z,86.57
2017-09-21T00:10:06.979Z,86.76
2017-09-21T00:11:07.414Z,85.66
2017-09-21T00:12:07.827Z,86.08
2017-09-21T00:13:08.265Z,86.04
2017-09-21T00:14:08.693Z,85.57
2017-09-21T00:15:09.126Z,86.04
2017-09-21T00:16:09.556Z,86.04
2017-09-21T00:17:09.992Z,86.14
2017-09-21T00:18:10.423Z,85.85
2017-09-21T00:19:10.855Z,85.94
2017-09-21T00:20:11.287Z,86.04
2017-09-21T00:21:11.718Z,85.66
2017-09-21T00:22:12.144Z,85.94
2017-09-21T00:23:12.578Z,86.04
2017-09-21T00:24:13.010Z,85.57
2017-09-21T00:25:13.439Z,86.04
2017-09-21T00:26:13.873Z,86.04
2017-09-21T00:27:14.308Z,85.85
2017-09-21T00:28:14.739Z,85.57
2017-09-21T00:29:15.165Z,85.94
2017-09-21T00:30:15.613Z,86.14
2017-09-21T00:31:16.032Z,85.85
2017-09-21T00:32:16.459Z,85.85
2017-09-21T00:33:16.895Z,85.75
2017-09-21T00:34:17.323Z,85.66
2017-09-21T00:35:17.754Z,85.94
2017-09-21T00:36:18.187Z,85.71
2017-09-21T00:37:18.626Z,86.08
2017-09-21T00:38:19.052Z,85.75
2017-09-21T00:39:19.491Z,85.94
2017-09-21T00:40:19.918Z,84.70
2017-09-21T00:41:20.339Z,85.75
2017-09-21T00:42:20.775Z,84.89
2017-09-21T00:43:21.203Z,84.42
2017-09-21T00:44:21.643Z,85.57
2017-09-21T00:45:22.065Z,85.28
2017-09-21T00:46:22.506Z,85.57
2017-09-21T00:47:22.930Z,85.66
2017-09-21T00:48:23.362Z,85.38
2017-09-21T00:49:23.793Z,85.47
2017-09-21T00:50:24.222Z,85.85
2017-09-21T00:51:24.659Z,85.47
2017-09-21T00:52:25.087Z,85.57
2017-09-21T00:53:25.529Z,85.75
2017-09-21T00:54:25.953Z,85.28
2017-09-21T00:55:26.392Z,85.28
2017-09-21T00:56:26.811Z,85.57
2017-09-21T00:57:27.240Z,85.47
2017-09-21T00:58:27.677Z,85.66
2017-09-21T00:59:28.102Z,85.66
2017-09-21T01:00:28.538Z,85.66
2017-09-21T01:01:28.965Z,85.75
2017-09-21T01:02:29.401Z,85.38
2017-09-21T01:03:29.828Z,85.75
2017-09-21T01:04:30.257Z,85.57
2017-09-21T01:05:30.688Z,84.99
2017-09-21T01:06:31.121Z,84.89
2017-09-21T01:07:31.553Z,84.89
2017-09-21T01:08:31.984Z,84.80
2017-09-21T01:09:32.414Z,84.80
2017-09-21T01:10:32.850Z,84.99
2017-09-21T01:11:33.280Z,85.18
2017-09-21T01:12:33.705Z,85.75
2017-09-21T01:13:34.137Z,85.57
2017-09-21T01:14:34.573Z,85.47
2017-09-21T01:15:35.003Z,85.47
2017-09-21T01:16:35.430Z,85.38
2017-09-21T01:17:35.862Z,84.89
2017-09-21T01:18:36.300Z,85.28
2017-09-21T01:19:36.721Z,84.89
2017-09-21T01:20:37.156Z,84.99
2017-09-21T01:21:37.593Z,85.18
2017-09-21T01:22:38.018Z,85.38
2017-09-21T01:23:38.451Z,85.47
2017-09-21T01:24:38.878Z,85.57
2017-09-21T01:25:39.316Z,85.57
2017-09-21T01:26:39.741Z,85.57
2017-09-21T01:27:40.171Z,85.57
2017-09-21T01:28:40.612Z,85.38
2017-09-21T01:29:41.040Z,85.66
2017-09-21T01:30:41.463Z,85.57
2017-09-21T01:31:41.898Z,85.57
2017-09-21T01:32:42.329Z,85.75
2017-09-21T01:33:42.771Z,85.57
2017-09-21T01:34:43.188Z,85.47
2017-09-21T01:35:43.633Z,85.38
2017-09-21T01:36:44.060Z,85.66
2017-09-21T01:37:44.485Z,85.47
2017-09-21T01:38:44.918Z,85.28
2017-09-21T01:39:45.345Z,85.47
2017-09-21T01:40:45.785Z,85.66
2017-09-21T01:41:46.216Z,85.57
2017-09-21T01:42:46.649Z,85.18
2017-09-21T01:43:47.077Z,85.57
2017-09-21T01:44:47.506Z,84.80
2017-09-21T01:45:47.936Z,84.99
2017-09-21T01:46:48.367Z,84.99
2017-09-21T01:47:48.795Z,84.89
2017-09-21T01:48:49.226Z,85.09
2017-09-21T01:49:49.665Z,84.99
2017-09-21T01:50:50.089Z,84.42
2017-09-21T01:51:50.526Z,84.52
2017-09-21T01:52:50.950Z,84.89
2017-09-21T01:53:51.385Z,84.99
2017-09-21T01:54:51.821Z,84.99
2017-09-21T01:55:52.247Z,84.89
2017-09-21T01:56:52.684Z,84.23
2017-09-21T01:57:53.106Z,84.70
2017-09-21T01:58:53.547Z,84.99
2017-09-21T01:59:53.975Z,84.80
2017-09-21T02:00:55.391Z,84.89
2017-09-21T02:01:54.830Z,84.23
2017-09-21T02:02:55.272Z,84.52
2017-09-21T02:03:55.699Z,85.57
2017-09-21T02:04:56.130Z,85.47
2017-09-21T02:05:56.558Z,85.18
2017-09-21T02:06:56.993Z,85.47
2017-09-21T02:07:57.502Z,85.47
2017-09-21T02:08:57.859Z,84.99
2017-09-21T02:09:58.288Z,84.99
2017-09-21T02:10:58.714Z,83.56
2017-09-21T02:11:59.147Z,83.56
2017-09-21T02:12:59.579Z,84.32
2017-09-21T02:14:00.011Z,84.70
2017-09-21T02:15:00.447Z,83.84
2017-09-21T02:16:00.873Z,83.56
2017-09-21T02:17:01.305Z,83.27
2017-09-21T02:18:01.758Z,83.65
2017-09-21T02:19:02.169Z,84.13
2017-09-21T02:20:02.619Z,83.75
2017-09-21T02:21:03.040Z,83.75
2017-09-21T02:22:03.460Z,84.52
2017-09-21T02:23:03.897Z,84.32
2017-09-21T02:24:04.326Z,84.23
2017-09-21T02:25:04.756Z,84.52
2017-09-21T02:26:05.193Z,84.52
2017-09-21T02:27:05.640Z,84.61
2017-09-21T02:28:06.055Z,84.89
2017-09-21T02:29:06.486Z,84.61
2017-09-21T02:30:06.921Z,84.52
2017-09-21T02:31:07.363Z,83.94
2017-09-21T02:32:07.784Z,84.70
2017-09-21T02:33:08.210Z,84.70
2017-09-21T02:34:08.662Z,85.09
2017-09-21T02:35:09.076Z,85.66
2017-09-21T02:36:09.513Z,84.32
2017-09-21T02:37:09.937Z,84.61
2017-09-21T02:38:10.375Z,84.80
2017-09-21T02:39:10.799Z,84.99
2017-09-21T02:40:11.234Z,84.89
2017-09-21T02:41:11.668Z,84.99
2017-09-21T02:42:12.094Z,84.89
2017-09-21T02:43:12.532Z,84.99
2017-09-21T02:44:12.958Z,84.23
2017-09-21T02:45:13.394Z,84.52
2017-09-21T02:46:13.825Z,84.23
2017-09-21T02:47:14.256Z,84.42
2017-09-21T02:48:14.690Z,83.94
2017-09-21T02:49:15.115Z,83.56
2017-09-21T02:50:15.549Z,83.65
2017-09-21T02:51:15.981Z,83.75
2017-09-21T02:52:16.410Z,84.52
2017-09-21T02:53:16.842Z,84.32
2017-09-21T02:54:17.289Z,82.89
2017-09-21T02:55:17.732Z,82.65
2017-09-21T02:56:18.148Z,82.94
2017-09-21T02:57:18.577Z,82.79
2017-09-21T02:58:19.006Z,82.94
2017-09-21T02:59:19.438Z,82.94
2017-09-21T03:00:19.871Z,81.51
2017-09-21T03:01:20.302Z,81.89
2017-09-21T03:02:20.730Z,82.75
2017-09-21T03:03:21.162Z,82.08
2017-09-21T03:04:21.599Z,82.08
2017-09-21T03:05:22.020Z,81.79
2017-09-21T03:06:22.453Z,82.46
2017-09-21T03:07:22.886Z,82.56
2017-09-21T03:08:23.319Z,82.28
2017-09-21T03:09:23.748Z,83.04
2017-09-21T03:10:24.193Z,83.33
2017-09-21T03:11:24.608Z,82.56
2017-09-21T03:12:25.042Z,82.94
2017-09-21T03:13:25.473Z,83.17
2017-09-21T03:14:25.919Z,82.65
2017-09-21T03:15:26.336Z,82.22
2017-09-21T03:16:26.766Z,81.60
2017-09-21T03:17:27.200Z,82.37
2017-09-21T03:18:27.635Z,81.99
2017-09-21T03:19:28.062Z,81.70
2017-09-21T03:20:28.492Z,82.56
2017-09-21T03:21:28.939Z,81.70
2017-09-21T03:22:29.359Z,82.75
2017-09-21T03:23:29.793Z,82.98
2017-09-21T03:24:30.234Z,82.60
2017-09-21T03:25:30.652Z,82.89
2017-09-21T03:26:31.080Z,83.46
2017-09-21T03:27:31.514Z,83.65
2017-09-21T03:28:31.946Z,82.28
2017-09-21T03:29:32.378Z,82.75
2017-09-21T03:30:32.808Z,81.89
2017-09-21T03:31:33.248Z,82.79
2017-09-21T03:32:33.688Z,83.37
2017-09-21T03:33:34.103Z,82.79
2017-09-21T03:34:34.534Z,82.18
2017-09-21T03:35:34.974Z,81.89
2017-09-21T03:36:35.394Z,81.89
2017-09-21T03:37:35.826Z,81.99
2017-09-21T03:38:36.267Z,81.79
2017-09-21T03:39:36.688Z,81.89
2017-09-21T03:40:37.118Z,81.60
2017-09-21T03:41:37.551Z,81.70
2017-09-21T03:42:37.985Z,81.51
2017-09-21T03:43:38.421Z,81.13
2017-09-21T03:44:38.845Z,81.79
2017-09-21T03:45:39.280Z,81.79
2017-09-21T03:46:39.708Z,81.22
2017-09-21T03:47:40.156Z,80.84
2017-09-21T03:48:40.569Z,80.84
2017-09-21T03:49:41.005Z,80.65
2017-09-21T03:50:41.437Z,81.41
2017-09-21T03:51:41.871Z,81.13
2017-09-21T03:52:42.296Z,80.93
2017-09-21T03:53:42.730Z,81.41
2017-09-21T03:54:43.158Z,81.13
2017-09-21T03:55:43.588Z,81.32
2017-09-21T03:56:44.022Z,81.60
2017-09-21T03:57:44.455Z,81.79
2017-09-21T03:58:44.891Z,81.13
2017-09-21T03:59:45.317Z,80.84
2017-09-21T04:00:45.751Z,80.84
2017-09-21T04:01:46.175Z,80.93
2017-09-21T04:02:46.609Z,80.93
2017-09-21T04:03:47.039Z,80.46
2017-09-21T04:04:47.473Z,81.13
2017-09-21T04:05:47.898Z,81.03
2017-09-21T04:06:48.334Z,81.03
2017-09-21T04:07:48.762Z,81.03
2017-09-21T04:08:49.200Z,80.99
2017-09-21T04:09:49.622Z,81.22
2017-09-21T04:10:50.058Z,80.84
2017-09-21T04:11:50.488Z,81.03
2017-09-21T04:12:50.925Z,81.09
2017-09-21T04:13:51.348Z,81.18
2017-09-21T04:14:51.789Z,80.84
2017-09-21T04:15:52.211Z,80.90
2017-09-21T04:16:52.639Z,81.13
2017-09-21T04:17:53.073Z,81.51
2017-09-21T04:18:53.506Z,80.93
2017-09-21T04:19:53.932Z,81.13
2017-09-21T04:20:54.367Z,81.60
2017-09-21T04:21:54.804Z,80.27
2017-09-21T04:22:55.232Z,80.65
2017-09-21T04:23:55.658Z,80.46
2017-09-21T04:24:56.088Z,80.41
2017-09-21T04:25:56.520Z,79.75
2017-09-21T04:26:56.956Z,79.94
2017-09-21T04:27:57.385Z,79.36
2017-09-21T04:28:57.815Z,79.46
2017-09-21T04:29:58.244Z,80.04
2017-09-21T04:30:58.674Z,79.36
2017-09-21T04:31:59.107Z,79.56
2017-09-21T04:32:59.538Z,79.17
2017-09-21T04:33:59.975Z,79.94
2017-09-21T04:35:00.399Z,79.94
2017-09-21T04:36:00.835Z,79.85
2017-09-21T04:37:01.255Z,79.56
2017-09-21T04:38:01.691Z,79.94
2017-09-21T04:39:02.130Z,79.94
2017-09-21T04:40:02.551Z,79.85
2017-09-21T04:41:02.980Z,79.94
2017-09-21T04:42:03.412Z,80.61
2017-09-21T04:43:03.841Z,79.17
2017-09-21T04:44:04.272Z,80.04
2017-09-21T04:45:04.701Z,79.46
2017-09-21T04:46:05.133Z,79.85
2017-09-21T04:47:05.575Z,80.04
2017-09-21T04:48:05.995Z,79.36
2017-09-21T04:49:06.424Z,79.56
2017-09-21T04:50:06.854Z,79.46
2017-09-21T04:51:07.307Z,79.46
2017-09-21T04:52:07.716Z,79.17
2017-09-21T04:53:08.148Z,79.56
2017-09-21T04:54:08.622Z,79.17
2017-09-21T04:55:09.011Z,79.08
2017-09-21T04:56:09.442Z,79.08
2017-09-21T04:57:09.908Z,79.17
2017-09-21T04:58:10.330Z,79.75
2017-09-21T04:59:10.732Z,79.46
2017-09-21T05:00:11.192Z,79.17
2017-09-21T05:01:11.599Z,78.99
2017-09-21T05:02:12.018Z,79.65
2017-09-21T05:03:12.468Z,79.08
2017-09-21T05:04:12.883Z,79.27
2017-09-21T05:05:13.310Z,78.79
2017-09-21T05:06:13.745Z,79.27
2017-09-21T05:07:14.177Z,79.27
2017-09-21T05:08:14.616Z,79.17
2017-09-21T05:09:15.033Z,79.17
2017-09-21T05:10:15.464Z,78.89
2017-09-21T05:11:15.901Z,78.99
2017-09-21T05:12:16.328Z,79.08
2017-09-21T05:13:16.758Z,78.99
2017-09-21T05:14:17.189Z,78.79
2017-09-21T05:15:17.621Z,78.89
2017-09-21T05:16:18.051Z,79.27
2017-09-21T05:17:18.479Z,79.08
2017-09-21T05:18:18.909Z,79.27
2017-09-21T05:19:19.339Z,78.89
2017-09-21T05:20:19.772Z,79.08
2017-09-21T05:21:20.198Z,79.08
2017-09-21T05:22:20.635Z,79.17
2017-09-21T05:23:21.063Z,79.27
2017-09-21T05:24:21.501Z,79.56
2017-09-21T05:25:21.928Z,79.17
2017-09-21T05:26:22.352Z,79.94
2017-09-21T05:27:22.784Z,79.36
2017-09-21T05:28:23.214Z,79.94
2017-09-21T05:29:23.654Z,79.85
2017-09-21T05:30:24.092Z,80.13
2017-09-21T05:31:24.509Z,80.07
2017-09-21T05:32:24.937Z,80.27
2017-09-21T05:33:25.373Z,81.13
2017-09-21T05:34:25.800Z,81.03
2017-09-21T05:35:26.266Z,80.13
2017-09-21T05:36:26.672Z,80.36
2017-09-21T05:37:27.093Z,81.03
2017-09-21T05:38:27.522Z,80.04
2017-09-21T05:39:27.951Z,80.36
2017-09-21T05:40:28.412Z,81.13
2017-09-21T05:41:28.839Z,80.84
2017-09-21T05:42:29.246Z,80.93
2017-09-21T05:43:29.678Z,80.22
2017-09-21T05:44:30.107Z,80.13
2017-09-21T05:45:30.650Z,79.88
2017-09-21T05:46:30.961Z,80.93
2017-09-21T05:47:31.405Z,80.84
2017-09-21T05:48:32.223Z,81.13
2017-09-21T05:49:32.262Z,81.13
2017-09-21T05:50:32.968Z,81.70
2017-09-21T05:51:33.127Z,81.70
2017-09-21T05:52:33.591Z,80.93
2017-09-21T05:53:33.995Z,80.07
2017-09-21T05:54:34.441Z,80.41
2017-09-21T05:55:34.886Z,81.03
2017-09-21T05:56:35.454Z,80.93
2017-09-21T05:57:35.727Z,80.65
2017-09-21T05:58:36.177Z,80.93
2017-09-21T05:59:36.611Z,80.27
2017-09-21T06:00:37.022Z,81.03
2017-09-21T06:03:38.949Z,79.94
2017-09-21T06:04:38.675Z,79.65
2017-09-21T06:06:34.229Z,79.17
2017-09-21T06:07:34.660Z,79.56
2017-09-21T06:09:29.214Z,79.17
2017-09-21T06:10:29.649Z,79.08
2017-09-21T06:12:24.203Z,77.84
2017-09-21T06:13:24.640Z,79.08
2017-09-21T06:15:19.199Z,78.99
2017-09-21T06:16:19.631Z,79.27
2017-09-21T06:18:14.193Z,79.08
2017-09-21T06:19:14.641Z,80.07
2017-09-21T06:21:09.191Z,79.02
2017-09-21T06:22:09.628Z,81.84
2017-09-21T06:24:04.182Z,82.89
2017-09-21T06:25:04.620Z,83.37
2017-09-21T06:26:59.179Z,83.60
2017-09-21T06:27:59.615Z,84.17
2017-09-21T06:29:54.171Z,84.46
2017-09-21T06:30:54.609Z,84.65
2017-09-21T06:32:49.170Z,86.13
2017-09-21T06:33:49.608Z,85.55
2017-09-21T06:35:44.173Z,85.75
2017-09-21T06:36:44.612Z,85.61
2017-09-21T06:38:39.171Z,83.60
2017-09-21T06:39:39.609Z,84.55
2017-09-21T06:41:34.172Z,83.89
2017-09-21T06:42:34.612Z,85.41
2017-09-21T06:43:35.042Z,85.51
2017-09-21T06:44:35.474Z,83.69
2017-09-21T06:45:35.908Z,85.71
2017-09-21T06:46:36.345Z,85.61
2017-09-21T06:47:36.774Z,84.46
2017-09-21T06:48:37.212Z,84.55
2017-09-21T06:49:37.641Z,84.17
2017-09-21T06:50:38.072Z,84.46
2017-09-21T06:51:41.434Z,83.94
2017-09-21T06:52:38.943Z,83.65
2017-09-21T06:53:39.374Z,83.46
2017-09-21T06:54:39.809Z,83.27
2017-09-21T06:55:40.240Z,82.51
2017-09-21T06:56:40.671Z,83.08
2017-09-21T06:57:41.109Z,83.08
2017-09-21T06:58:41.536Z,83.46
2017-09-21T06:59:41.973Z,82.70
2017-09-21T07:00:42.404Z,83.46
2017-09-21T07:01:42.839Z,82.89
2017-09-21T07:02:43.268Z,83.17
2017-09-21T07:03:43.701Z,82.41
2017-09-21T07:04:44.134Z,82.89
2017-09-21T07:05:44.568Z,83.94
2017-09-21T07:06:45.001Z,83.56
2017-09-21T07:07:45.433Z,82.89
2017-09-21T07:08:45.874Z,83.08
2017-09-21T07:09:46.304Z,82.70
2017-09-21T07:10:46.734Z,83.27
2017-09-21T07:11:47.164Z,83.37
2017-09-21T07:12:47.598Z,83.37
2017-09-21T07:13:48.033Z,83.27
2017-09-21T07:14:48.465Z,83.60
2017-09-21T07:15:48.898Z,83.69
2017-09-21T07:16:49.329Z,84.27
2017-09-21T07:17:49.762Z,83.98
2017-09-21T07:18:50.201Z,84.55
2017-09-21T07:19:50.627Z,84.36
2017-09-21T07:20:51.103Z,84.46
2017-09-21T07:21:51.498Z,84.46
2017-09-21T07:22:51.936Z,84.46
2017-09-21T07:23:52.364Z,84.17
2017-09-21T07:24:52.796Z,84.94
2017-09-21T07:25:53.232Z,84.75
2017-09-21T07:26:53.673Z,85.65
2017-09-21T07:27:54.095Z,85.46
2017-09-21T07:28:54.579Z,85.94
2017-09-21T07:29:54.965Z,86.46
2017-09-21T07:30:55.400Z,86.65
2017-09-21T07:31:55.833Z,87.46
2017-09-21T07:32:56.272Z,87.21
2017-09-21T07:33:56.706Z,87.70
2017-09-21T07:34:57.142Z,87.41
2017-09-21T07:35:57.578Z,87.17
2017-09-21T07:36:58.015Z,87.46
2017-09-21T07:37:58.450Z,87.27
2017-09-21T07:38:58.891Z,87.98
2017-09-21T07:39:59.326Z,87.50
2017-09-21T07:40:59.764Z,87.55
2017-09-21T07:42:00.198Z,86.83
2017-09-21T07:43:00.636Z,86.79
2017-09-21T07:44:01.075Z,87.37
2017-09-21T07:45:01.723Z,86.50
2017-09-21T07:46:01.939Z,86.69
2017-09-21T07:47:02.390Z,87.55
2017-09-21T07:48:02.827Z,86.50
2017-09-21T07:49:03.262Z,86.60
2017-09-21T07:50:03.701Z,86.60
2017-09-21T07:51:04.137Z,86.69
2017-09-21T07:52:04.576Z,87.21
2017-09-21T07:53:05.017Z,87.21
2017-09-21T07:54:05.452Z,86.74
2017-09-21T07:55:05.888Z,87.50
2017-09-21T07:56:06.332Z,87.74
2017-09-21T07:57:06.771Z,87.60
2017-09-21T07:58:07.209Z,87.55
2017-09-21T07:59:07.647Z,87.26
2017-09-21T08:00:08.091Z,87.35
2017-09-21T08:01:08.527Z,85.51
2017-09-21T08:02:08.968Z,84.78
2017-09-21T08:03:09.408Z,83.40
2017-09-21T08:04:09.859Z,84.12
2017-09-21T08:05:10.295Z,84.01
2017-09-21T08:06:10.737Z,82.14
2017-09-21T08:07:11.181Z,81.60
2017-09-21T08:08:11.624Z,81.76
2017-09-21T08:09:12.069Z,84.66
2017-09-21T08:10:12.516Z,85.47
2017-09-21T08:11:12.961Z,83.87
2017-09-21T08:12:13.409Z,82.96
2017-09-21T08:13:13.861Z,83.11
2017-09-21T08:14:14.301Z,82.67
2017-09-21T08:15:14.808Z,83.93
2017-09-21T08:16:15.195Z,84.31
2017-09-21T08:17:15.642Z,83.15
2017-09-21T08:18:16.091Z,82.23
2017-09-21T08:19:16.593Z,80.48
2017-09-21T08:20:16.984Z,79.03
2017-09-21T08:21:17.430Z,77.76
2017-09-21T08:22:17.876Z,74.43
2017-09-21T08:23:18.325Z,75.03
2017-09-21T08:24:18.772Z,75.13
2017-09-21T08:25:19.221Z,76.78
2017-09-21T08:26:19.665Z,79.60
2017-09-21T08:27:20.116Z,81.86
2017-09-21T08:28:20.564Z,83.64
2017-09-21T08:29:21.008Z,83.45
2017-09-21T08:30:21.457Z,84.42
2017-09-21T08:31:21.904Z,85.48
2017-09-21T08:32:22.374Z,85.81
2017-09-21T08:33:22.793Z,84.41
2017-09-21T08:34:23.239Z,84.07
2017-09-21T08:35:23.683Z,82.48
2017-09-21T08:36:24.127Z,82.53
2017-09-21T08:37:24.574Z,83.36
2017-09-21T08:38:25.015Z,82.34
2017-09-21T08:39:25.460Z,82.05
2017-09-21T08:40:25.908Z,82.63
2017-09-21T08:41:26.354Z,83.07
2017-09-21T08:42:26.795Z,84.42
2017-09-21T08:43:27.246Z,85.48
2017-09-21T08:44:27.687Z,85.42
2017-09-21T08:45:28.130Z,84.85
2017-09-21T08:46:28.576Z,84.03
2017-09-21T08:47:29.013Z,83.69
2017-09-21T08:48:29.459Z,83.07
2017-09-21T08:49:29.900Z,84.75
2017-09-21T08:50:30.367Z,83.49
2017-09-21T08:51:30.788Z,81.81
2017-09-21T08:52:31.235Z,80.40
2017-09-21T08:53:31.680Z,78.75
2017-09-21T08:54:32.121Z,75.80
2017-09-21T08:55:32.575Z,76.88
2017-09-21T08:56:33.015Z,77.71
2017-09-21T08:57:33.461Z,77.75
2017-09-21T08:58:33.906Z,76.84
2017-09-21T08:59:34.362Z,77.86
2017-09-21T09:00:34.797Z,79.40
2017-09-21T09:01:35.246Z,79.25
2017-09-21T09:02:35.691Z,76.18
2017-09-21T09:03:36.136Z,74.71
2017-09-21T09:04:36.579Z,70.89
2017-09-21T09:05:37.027Z,69.87
2017-09-21T09:06:37.476Z,69.90
2017-09-21T09:07:37.920Z,67.81
2017-09-21T09:08:38.374Z,65.53
2017-09-21T09:09:38.821Z,67.81
2017-09-21T09:10:39.272Z,70.98
2017-09-21T09:11:39.726Z,67.20
2017-09-21T09:12:40.176Z,65.82
2017-09-21T09:13:40.623Z,66.17
2017-09-21T09:14:41.074Z,69.22
2017-09-21T09:15:41.540Z,68.65
2017-09-21T09:16:41.983Z,67.71
2017-09-21T09:17:42.430Z,70.76
2017-09-21T09:18:42.882Z,67.43
2017-09-21T09:19:43.335Z,66.36
2017-09-21T09:20:43.793Z,68.35
2017-09-21T09:21:44.243Z,68.16
2017-09-21T09:22:44.699Z,66.49
2017-09-21T09:23:45.166Z,70.18
2017-09-21T09:24:45.601Z,70.95
2017-09-21T09:25:46.053Z,69.25
2017-09-21T09:26:46.506Z,70.18
2017-09-21T09:27:46.955Z,69.19
2017-09-21T09:28:47.404Z,69.25
2017-09-21T09:29:47.853Z,69.15
2017-09-21T09:30:48.306Z,69.06
2017-09-21T09:31:48.759Z,71.40
2017-09-21T09:32:49.224Z,73.00
2017-09-21T09:33:49.657Z,74.21
2017-09-21T09:34:50.115Z,75.94
2017-09-21T09:35:50.569Z,75.98
2017-09-21T09:36:50.997Z,74.15
2017-09-21T09:37:51.446Z,74.05
2017-09-21T09:38:51.911Z,74.73
2017-09-21T09:39:52.350Z,73.86
2017-09-21T09:40:52.788Z,75.84
2017-09-21T09:41:53.230Z,76.61
2017-09-21T09:42:53.679Z,77.58
2017-09-21T09:43:54.126Z,76.07
2017-09-21T09:44:54.573Z,76.32
2017-09-21T09:45:55.014Z,77.92
2017-09-21T09:46:55.461Z,80.47
2017-09-21T09:47:55.917Z,79.17
2017-09-21T09:48:56.350Z,79.52
2017-09-21T09:49:56.794Z,80.38
2017-09-21T09:50:57.239Z,79.61
2017-09-21T09:51:57.729Z,80.53
2017-09-21T09:52:58.146Z,80.73
2017-09-21T09:53:58.570Z,81.15
2017-09-21T09:54:59.014Z,80.38
2017-09-21T09:55:59.484Z,80.28
2017-09-21T09:56:59.899Z,79.75
2017-09-21T09:58:00.362Z,78.44
2017-09-21T09:59:00.789Z,77.38
2017-09-21T10:00:01.228Z,76.75
2017-09-21T10:01:01.674Z,75.79
2017-09-21T10:02:02.118Z,75.40
2017-09-21T10:03:02.576Z,74.96
2017-09-21T10:04:03.013Z,75.31
2017-09-21T10:05:03.478Z,76.32
2017-09-21T10:06:03.904Z,75.94
2017-09-21T10:07:04.350Z,76.42
2017-09-21T10:08:04.824Z,76.75
2017-09-21T10:09:05.248Z,76.14
2017-09-21T10:10:05.694Z,78.17
2017-09-21T10:11:06.145Z,79.80
2017-09-21T10:12:06.590Z,79.61
2017-09-21T10:13:07.032Z,79.75
2017-09-21T10:14:07.480Z,77.67
2017-09-21T10:15:07.921Z,77.76
2017-09-21T10:16:08.371Z,78.40
2017-09-21T10:17:08.815Z,76.77
2017-09-21T10:18:09.264Z,76.17
2017-09-21T10:19:09.702Z,75.65
2017-09-21T10:20:10.149Z,75.98
2017-09-21T10:21:10.594Z,75.03
2017-09-21T10:22:11.045Z,69.74
2017-09-21T10:23:11.487Z,66.72
2017-09-21T10:24:11.935Z,62.15
2017-09-21T10:25:12.381Z,57.88
2017-09-21T10:26:12.838Z,54.16
2017-09-21T10:27:13.281Z,52.66
2017-09-21T10:28:13.733Z,48.64
2017-09-21T10:29:14.187Z,50.77
2017-09-21T10:30:14.641Z,52.56
2017-09-21T10:31:15.096Z,52.80
2017-09-21T10:32:15.544Z,49.92
2017-09-21T10:33:15.996Z,50.94
2017-09-21T10:34:16.450Z,52.24
2017-09-21T10:35:16.904Z,56.74
2017-09-21T10:36:17.359Z,58.65
2017-09-21T10:37:17.811Z,60.28
2017-09-21T10:38:18.268Z,60.96
2017-09-21T10:39:18.719Z,59.48
2017-09-21T10:40:19.168Z,59.13
2017-09-21T10:41:19.621Z,62.90
2017-09-21T10:42:20.078Z,65.85
2017-09-21T10:43:20.519Z,65.69
2017-09-21T10:44:20.968Z,65.50
2017-09-21T10:45:21.422Z,66.36
2017-09-21T10:46:21.867Z,67.19
2017-09-21T10:47:22.319Z,66.27
2017-09-21T10:48:22.764Z,66.20
2017-09-21T10:49:23.212Z,67.42
2017-09-21T10:50:23.663Z,68.86
2017-09-21T10:51:24.106Z,69.24
2017-09-21T10:52:24.556Z,69.21
2017-09-21T10:53:25.007Z,70.11
2017-09-21T10:54:25.459Z,70.46
2017-09-21T10:55:25.890Z,69.34
2017-09-21T10:56:26.341Z,70.37
2017-09-21T10:57:26.788Z,71.14
2017-09-21T10:58:27.229Z,71.96
2017-09-21T10:59:27.680Z,71.36
2017-09-21T11:00:28.121Z,70.21
2017-09-21T11:01:28.567Z,70.34
2017-09-21T11:02:29.009Z,70.88
2017-09-21T11:03:29.452Z,70.30
2017-09-21T11:04:29.897Z,70.01
2017-09-21T11:05:30.370Z,70.21
2017-09-21T11:06:30.783Z,70.43
2017-09-21T11:07:31.245Z,70.34
2017-09-21T11:08:31.689Z,69.47
2017-09-21T11:09:32.116Z,70.21
2017-09-21T11:10:32.561Z,70.68
2017-09-21T11:11:33.006Z,70.53
2017-09-21T11:12:33.455Z,70.82
2017-09-21T11:13:33.890Z,70.40
2017-09-21T11:14:34.338Z,70.43
2017-09-21T11:15:34.777Z,70.50
2017-09-21T11:16:35.262Z,71.36
2017-09-21T11:17:35.663Z,71.36
2017-09-21T11:18:36.112Z,71.36
2017-09-21T11:19:36.550Z,71.46
2017-09-21T11:20:36.994Z,71.55
2017-09-21T11:21:37.436Z,71.88
2017-09-21T11:22:37.895Z,70.62
2017-09-21T11:23:38.330Z,70.05
2017-09-21T11:24:38.767Z,70.01
2017-09-21T11:25:39.212Z,70.78
2017-09-21T11:26:39.663Z,70.21
2017-09-21T11:27:40.098Z,69.85
2017-09-21T11:28:40.562Z,68.51
2017-09-21T11:29:40.988Z,68.60
2017-09-21T11:30:41.444Z,68.90
2017-09-21T11:31:41.877Z,69.69
2017-09-21T11:32:42.327Z,71.36
2017-09-21T11:33:42.767Z,70.65
2017-09-21T11:34:43.235Z,70.88
2017-09-21T11:35:43.656Z,71.81
2017-09-21T11:36:44.096Z,71.26
2017-09-21T11:37:44.543Z,72.00
2017-09-21T11:38:44.988Z,71.26
2017-09-21T11:39:45.431Z,71.36
2017-09-21T11:40:45.879Z,71.26
2017-09-21T11:41:46.320Z,71.81
2017-09-21T11:42:46.760Z,71.81
2017-09-21T11:43:47.201Z,72.00
2017-09-21T11:44:47.645Z,72.19
2017-09-21T11:45:48.091Z,72.96
2017-09-21T11:46:48.536Z,72.58
2017-09-21T11:47:48.978Z,72.29
2017-09-21T11:48:49.430Z,72.03
2017-09-21T11:49:49.861Z,72.86
2017-09-21T11:50:50.303Z,72.61
2017-09-21T11:51:50.748Z,72.09
2017-09-21T11:52:51.194Z,71.81
2017-09-21T11:53:51.628Z,72.38
2017-09-21T11:54:52.068Z,72.29
2017-09-21T11:55:52.518Z,72.19
2017-09-21T11:56:52.962Z,72.29
2017-09-21T11:57:53.395Z,72.92
2017-09-21T11:58:53.840Z,72.83
2017-09-21T11:59:54.293Z,72.77
2017-09-21T12:00:54.730Z,72.48
2017-09-21T12:01:55.206Z,72.48
2017-09-21T12:02:55.614Z,72.58
2017-09-21T12:04:56.519Z,72.34
2017-09-21T12:05:56.963Z,72.44
2017-09-21T12:06:57.392Z,72.44
2017-09-21T12:07:57.837Z,72.19
2017-09-21T12:08:58.298Z,72.16
2017-09-21T12:09:58.720Z,73.11
2017-09-21T12:11:20.335Z,73.27
2017-09-21T12:11:59.615Z,73.46
2017-09-21T12:13:00.066Z,73.88
2017-09-21T12:14:00.486Z,73.94
2017-09-21T12:15:00.924Z,73.46
2017-09-21T12:16:01.364Z,74.04
2017-09-21T12:17:22.978Z,74.43
2017-09-21T12:18:02.246Z,75.67
2017-09-21T12:19:02.693Z,76.82
2017-09-21T12:20:03.161Z,77.69
2017-09-21T12:21:03.597Z,78.70
2017-09-21T12:22:04.028Z,80.40
2017-09-21T12:23:25.632Z,82.12
2017-09-21T12:24:04.909Z,83.85
2017-09-21T12:25:05.337Z,83.94
2017-09-21T12:26:05.785Z,84.52
2017-09-21T12:27:06.210Z,84.91
2017-09-21T12:28:06.678Z,84.52
2017-09-21T12:29:28.256Z,85.00
2017-09-21T12:30:07.579Z,84.67
2017-09-21T12:31:07.980Z,84.19
2017-09-21T12:32:08.412Z,84.28
2017-09-21T12:33:08.836Z,84.67
2017-09-21T12:34:09.275Z,84.38
2017-09-21T12:35:30.874Z,85.15
2017-09-21T12:36:10.184Z,85.05
2017-09-21T12:37:10.587Z,84.58
2017-09-21T12:38:11.020Z,85.44
2017-09-21T12:39:11.463Z,84.67
2017-09-21T12:40:11.900Z,84.95
2017-09-21T12:41:33.498Z,85.53
2017-09-21T12:42:12.767Z,84.38
2017-09-21T12:43:13.234Z,84.86
2017-09-21T12:44:13.651Z,85.53
2017-09-21T12:45:14.089Z,85.44
2017-09-21T12:46:14.519Z,85.44
2017-09-21T12:47:36.117Z,84.95
2017-09-21T12:48:15.388Z,85.63
2017-09-21T12:49:15.823Z,85.53
2017-09-21T12:50:16.269Z,85.05
2017-09-21T12:51:16.716Z,84.86
2017-09-21T12:52:17.145Z,85.44
2017-09-21T12:53:38.741Z,84.95
2017-09-21T12:54:18.002Z,85.05
2017-09-21T12:55:18.458Z,84.77
2017-09-21T12:56:18.880Z,84.77
2017-09-21T12:57:19.318Z,85.25
2017-09-21T12:58:19.754Z,85.05
2017-09-21T12:59:41.351Z,85.34
2017-09-21T13:00:20.647Z,85.10
2017-09-21T13:01:21.079Z,84.77
2017-09-21T13:02:21.502Z,85.05
2017-09-21T13:03:21.929Z,85.58
2017-09-21T13:04:22.464Z,84.58
2017-09-21T13:05:44.013Z,85.58
2017-09-21T13:06:23.281Z,85.10
2017-09-21T13:07:23.759Z,85.63
2017-09-21T13:08:24.180Z,85.10
2017-09-21T13:09:24.598Z,84.58
2017-09-21T13:10:25.031Z,84.86
2017-09-21T13:11:46.660Z,84.67
2017-09-21T13:12:25.915Z,84.95